Terminal Aerodrome Forecast
Issued by NWS

Home | Current Version | Previous Version | Text Only | Print | Product List | Glossary On
Versions: 1 2 3 4 5 6 7 8 9 10 11 12 13 14 15 16 17 18 19 20 21
000
FTUS46 KOTX 260603 AAA
TAFPUW
TAF AMD
KPUW 260603Z 2606/2706 20005KT P6SM -RA SCT050 OVC070
      TEMPO 2606/2610 2SM -RA BR SCT013 BKN024 OVC035
     FM261000 19005KT P6SM -RA BKN015 OVC025
     FM261500 25014G20KT P6SM VCSH BKN020 OVC040
     FM262000 24016G23KT P6SM -SHRA SCT035 BKN060
     FM270200 24018G26KT P6SM SCT040 BKN070=

USA.gov is the U.S. government's official web portal to all federal, state and local government web resources and services.